createdAt,value
2019-03-03T00:02:14.439Z,15.90
2019-03-03T00:04:46.803Z,15.20
2019-03-03T00:07:17.920Z,17.13
2019-03-03T00:09:49.318Z,14.17
2019-03-03T00:12:20.719Z,17.13
2019-03-03T00:14:52.222Z,17.33
2019-03-03T00:17:23.337Z,18.40
2019-03-03T00:19:54.915Z,14.90
2019-03-03T00:22:26.302Z,16.93
2019-03-03T00:24:58.016Z,16.23
2019-03-03T00:27:29.126Z,13.50
2019-03-03T00:30:00.862Z,15.77
2019-03-03T00:32:32.489Z,15.77
2019-03-03T00:35:04.041Z,15.40
2019-03-03T00:37:52.937Z,18.10
2019-03-03T00:40:43.600Z,17.17
2019-03-03T00:43:32.819Z,17.67
2019-03-03T00:46:26.350Z,19.23
2019-03-03T00:49:11.858Z,16.73
2019-03-03T00:52:05.545Z,14.57
2019-03-03T00:54:58.508Z,16.70
2019-03-03T00:57:57.967Z,15.70
2019-03-03T01:00:44.532Z,18.93
2019-03-03T01:03:21.599Z,15.43
2019-03-03T01:06:08.198Z,14.73
2019-03-03T01:08:51.233Z,21.47
2019-03-03T01:11:53.258Z,16.80
2019-03-03T01:14:42.271Z,15.83
2019-03-03T01:17:32.406Z,14.40
2019-03-03T01:20:28.665Z,16.60
2019-03-03T01:23:21.763Z,14.67
2019-03-03T01:25:53.398Z,15.07
2019-03-03T01:28:24.652Z,14.40
2019-03-03T01:30:56.273Z,17.07
2019-03-03T01:33:27.551Z,14.50
2019-03-03T01:35:59.348Z,15.60
2019-03-03T01:38:30.730Z,15.97
2019-03-03T01:41:02.584Z,20.87
2019-03-03T01:43:34.059Z,19.87
2019-03-03T01:46:05.708Z,15.67
2019-03-03T01:48:36.996Z,15.57
2019-03-03T01:51:08.612Z,17.40
2019-03-03T01:53:39.879Z,18.87
2019-03-03T01:56:11.483Z,17.20
2019-03-03T01:58:43.180Z,15.43
2019-03-03T02:01:14.722Z,17.37
2019-03-03T02:03:45.964Z,15.63
2019-03-03T02:06:17.336Z,16.30
2019-03-03T02:08:48.462Z,17.03
2019-03-03T02:11:20.114Z,17.57
2019-03-03T02:13:51.287Z,19.37
2019-03-03T02:16:22.708Z,18.97
2019-03-03T02:18:53.823Z,21.00
2019-03-03T02:21:25.410Z,18.50
2019-03-03T02:23:56.534Z,17.90
2019-03-03T02:26:28.104Z,18.17
2019-03-03T02:28:59.189Z,22.33
2019-03-03T02:31:30.553Z,17.80
2019-03-03T02:34:01.785Z,21.33
2019-03-03T02:36:33.014Z,19.93
2019-03-03T02:39:06.126Z,19.73
2019-03-03T02:41:39.071Z,18.47
2019-03-03T02:44:10.205Z,15.80
2019-03-03T02:46:41.562Z,19.23
2019-03-03T02:49:12.749Z,19.57
2019-03-03T02:51:44.253Z,17.30
2019-03-03T02:54:15.900Z,13.03
2019-03-03T02:56:47.274Z,16.03
2019-03-03T02:59:18.362Z,19.00
2019-03-03T03:02:13.731Z,15.70
2019-03-03T03:04:44.817Z,19.50
2019-03-03T03:07:36.693Z,20.43
2019-03-03T03:10:17.069Z,18.87
2019-03-03T03:13:09.098Z,17.63
2019-03-03T03:15:53.913Z,16.90
2019-03-03T03:18:59.407Z,19.13
2019-03-03T03:21:50.467Z,16.93
2019-03-03T03:24:42.050Z,17.20
2019-03-03T03:27:35.047Z,17.17
2019-03-03T03:30:21.667Z,18.27
2019-03-03T03:33:12.013Z,17.33
2019-03-03T03:36:08.138Z,17.80
2019-03-03T03:38:47.426Z,18.20
2019-03-03T03:41:27.217Z,19.30
2019-03-03T03:44:05.297Z,18.80
2019-03-03T03:46:54.496Z,21.60
2019-03-03T03:49:56.565Z,20.20
2019-03-03T03:53:02.140Z,17.10
2019-03-03T03:55:54.127Z,23.40
2019-03-03T03:58:37.278Z,22.70
2019-03-03T04:01:36.231Z,21.53
2019-03-03T04:04:15.709Z,17.90
2019-03-03T04:07:10.087Z,19.47
2019-03-03T04:10:03.562Z,23.10
2019-03-03T04:12:45.918Z,20.83
2019-03-03T04:15:45.895Z,20.80
2019-03-03T04:18:39.245Z,23.90
2019-03-03T04:21:28.330Z,20.40
2019-03-03T04:24:17.009Z,24.03
2019-03-03T04:27:02.678Z,37.10
2019-03-03T04:30:04.682Z,33.67
2019-03-03T04:32:57.814Z,24.50
2019-03-03T04:35:43.960Z,17.70
2019-03-03T04:38:40.228Z,21.93
2019-03-03T04:41:29.684Z,29.30
2019-03-03T04:44:15.592Z,19.70
2019-03-03T04:46:54.467Z,19.70
2019-03-03T04:49:45.024Z,16.00
2019-03-03T04:52:27.274Z,19.90
2019-03-03T04:55:27.751Z,17.67
2019-03-03T04:58:15.443Z,16.37
2019-03-03T05:01:13.062Z,21.87
2019-03-03T05:04:15.385Z,19.60
2019-03-03T05:07:08.908Z,23.53
2019-03-03T05:09:58.931Z,27.23
2019-03-03T05:12:43.818Z,26.70
2019-03-03T05:15:44.448Z,26.87
2019-03-03T05:18:34.792Z,24.03
2019-03-03T05:21:05.879Z,27.27
2019-03-03T05:23:37.487Z,25.00
2019-03-03T05:26:08.706Z,29.53
2019-03-03T05:28:40.295Z,23.87
2019-03-03T05:31:11.460Z,23.57
2019-03-03T05:33:42.945Z,22.23
2019-03-03T05:36:14.064Z,20.30
2019-03-03T05:38:45.385Z,18.73
2019-03-03T05:41:16.478Z,17.63
2019-03-03T05:43:47.881Z,19.07
2019-03-03T05:46:19.027Z,20.23
2019-03-03T05:48:50.629Z,21.10
2019-03-03T05:51:21.852Z,17.87
2019-03-03T05:53:53.285Z,22.53
2019-03-03T05:56:24.428Z,22.40
2019-03-03T05:58:55.786Z,22.73
2019-03-03T06:01:27.160Z,21.37
2019-03-03T06:03:58.575Z,19.87
2019-03-03T06:06:29.657Z,21.53
2019-03-03T06:09:01.656Z,24.80
2019-03-03T06:11:34.344Z,23.03
2019-03-03T06:14:05.709Z,21.80
2019-03-03T06:16:36.899Z,16.97
2019-03-03T06:19:08.404Z,31.33
2019-03-03T06:21:39.532Z,23.20
2019-03-03T06:24:10.901Z,23.47
2019-03-03T06:26:42.106Z,22.47
2019-03-03T06:29:14.020Z,23.17
2019-03-03T06:31:45.283Z,19.90
2019-03-03T06:34:16.600Z,21.83
2019-03-03T06:36:47.908Z,20.63
2019-03-03T06:39:19.265Z,21.47
2019-03-03T06:41:50.666Z,23.10
2019-03-03T06:44:23.332Z,32.83
2019-03-03T06:46:54.424Z,16.73
2019-03-03T06:49:25.760Z,19.03
2019-03-03T06:51:56.880Z,18.20
2019-03-03T06:54:28.074Z,16.10
2019-03-03T06:56:59.228Z,21.37
2019-03-03T06:59:30.658Z,18.70
2019-03-03T07:02:01.872Z,19.90
2019-03-03T07:04:33.176Z,16.67
2019-03-03T07:07:04.509Z,21.33
2019-03-03T07:09:36.506Z,17.17
2019-03-03T07:12:07.841Z,18.40
2019-03-03T07:14:39.297Z,17.93
2019-03-03T07:17:10.662Z,17.73
2019-03-03T07:19:42.246Z,17.07
2019-03-03T07:22:13.424Z,18.33
2019-03-03T07:24:45.790Z,17.43
2019-03-03T07:27:16.963Z,18.83
2019-03-03T07:29:48.867Z,16.87
2019-03-03T07:32:20.135Z,18.00
2019-03-03T07:34:51.471Z,17.13
2019-03-03T07:37:22.706Z,16.63
2019-03-03T07:39:55.090Z,17.87
2019-03-03T07:42:26.191Z,18.20
2019-03-03T07:44:58.471Z,17.30
2019-03-03T07:47:30.026Z,19.67
2019-03-03T07:50:01.804Z,21.20
2019-03-03T07:52:33.074Z,19.07
2019-03-03T07:55:05.519Z,18.43
2019-03-03T07:57:36.750Z,20.40
2019-03-03T08:00:19.455Z,22.07
2019-03-03T08:02:50.717Z,18.03
2019-03-03T08:05:22.425Z,24.27
2019-03-03T08:07:53.512Z,17.37
2019-03-03T08:10:24.758Z,17.30
2019-03-03T08:12:55.905Z,18.63
2019-03-03T08:15:27.280Z,17.70
2019-03-03T08:17:58.665Z,21.73
2019-03-03T08:20:30.092Z,21.37
2019-03-03T08:23:01.222Z,19.93
2019-03-03T08:25:32.576Z,17.07
2019-03-03T08:28:03.754Z,20.10
2019-03-03T08:30:36.499Z,18.60
2019-03-03T08:33:07.655Z,21.60
2019-03-03T08:35:39.073Z,14.97
2019-03-03T08:38:10.237Z,13.67
2019-03-03T08:40:41.906Z,17.57
2019-03-03T08:43:56.762Z,22.07
2019-03-03T08:46:48.711Z,21.37
2019-03-03T08:49:37.736Z,16.20
2019-03-03T08:52:26.842Z,17.33
2019-03-03T08:55:22.830Z,17.10
2019-03-03T08:58:09.896Z,17.30
2019-03-03T09:01:03.075Z,15.17
2019-03-03T09:03:56.309Z,14.10
2019-03-03T09:06:58.362Z,15.17
2019-03-03T09:09:48.666Z,14.40
2019-03-03T09:12:32.125Z,12.63
2019-03-03T09:15:28.540Z,14.57
2019-03-03T09:18:15.065Z,15.17
2019-03-03T09:20:58.280Z,13.47
2019-03-03T09:23:51.388Z,17.20
2019-03-03T09:26:41.826Z,13.33
2019-03-03T09:29:34.812Z,11.70
2019-03-03T09:32:28.056Z,10.83
2019-03-03T09:35:07.538Z,12.10
2019-03-03T09:38:03.824Z,12.13
2019-03-03T09:41:03.215Z,12.10
2019-03-03T09:43:53.451Z,12.83
2019-03-03T09:46:43.792Z,16.33
2019-03-03T09:49:37.402Z,16.17
2019-03-03T09:52:15.296Z,15.93
2019-03-03T09:55:11.726Z,14.70
2019-03-03T09:58:08.728Z,16.43
2019-03-03T10:00:56.315Z,12.50
2019-03-03T10:03:39.825Z,13.93
2019-03-03T10:06:39.474Z,15.40
2019-03-03T10:09:31.534Z,13.87
2019-03-03T10:12:10.948Z,12.23
2019-03-03T10:14:48.898Z,12.40
2019-03-03T10:17:34.415Z,15.50
2019-03-03T10:20:28.302Z,14.20
2019-03-03T10:23:17.775Z,13.00
2019-03-03T10:26:19.893Z,15.13
2019-03-03T10:29:07.169Z,12.77
2019-03-03T10:32:00.484Z,11.40
2019-03-03T10:34:50.840Z,13.10
2019-03-03T10:37:49.922Z,11.83
2019-03-03T10:40:49.662Z,9.60
2019-03-03T10:43:38.113Z,10.80
2019-03-03T10:46:40.586Z,9.93
2019-03-03T10:49:24.524Z,9.50
2019-03-03T10:52:10.001Z,11.37
2019-03-03T10:54:52.211Z,12.47
2019-03-03T10:57:57.678Z,9.70
2019-03-03T11:00:53.962Z,8.47
2019-03-03T11:03:50.624Z,13.40
2019-03-03T11:06:31.912Z,12.00
2019-03-03T11:09:24.963Z,12.07
2019-03-03T11:12:12.806Z,9.77
2019-03-03T11:14:57.134Z,7.23
2019-03-03T11:17:36.435Z,9.50
2019-03-03T11:20:20.088Z,10.37
2019-03-03T11:23:16.066Z,9.57
2019-03-03T11:26:18.560Z,11.67
2019-03-03T11:29:01.563Z,11.40
2019-03-03T11:31:50.603Z,7.97
2019-03-03T11:34:40.712Z,9.23
2019-03-03T11:37:26.434Z,11.63
2019-03-03T11:40:22.664Z,9.27
2019-03-03T11:43:03.863Z,8.57
2019-03-03T11:46:04.148Z,6.70
2019-03-03T11:48:54.372Z,7.93
2019-03-03T11:51:37.012Z,9.27
2019-03-03T11:54:15.964Z,5.67
2019-03-03T11:57:01.770Z,4.83
2019-03-03T11:59:46.679Z,5.20
2019-03-03T12:02:40.028Z,8.03
2019-03-03T12:05:48.592Z,7.53
2019-03-03T12:08:54.202Z,6.47
2019-03-03T12:11:44.529Z,8.30
2019-03-03T12:14:44.318Z,7.60
2019-03-03T12:17:52.544Z,6.47
2019-03-03T12:21:01.276Z,5.47
2019-03-03T12:23:53.496Z,7.00
2019-03-03T12:26:33.473Z,5.20
2019-03-03T12:29:27.334Z,8.77
2019-03-03T12:32:27.126Z,6.63
2019-03-03T12:35:17.438Z,6.63
2019-03-03T12:38:01.070Z,3.53
2019-03-03T12:40:49.394Z,5.97
2019-03-03T12:43:54.678Z,5.57
2019-03-03T12:46:36.874Z,5.83
2019-03-03T12:49:36.279Z,5.53
2019-03-03T12:52:25.330Z,4.40
2019-03-03T12:55:11.683Z,3.40
2019-03-03T12:58:00.443Z,4.77
2019-03-03T13:01:02.571Z,4.40
2019-03-03T13:03:55.898Z,4.60
2019-03-03T13:06:44.142Z,4.50
2019-03-03T13:09:40.221Z,5.43
2019-03-03T13:12:33.482Z,5.63
2019-03-03T13:15:15.206Z,2.40
2019-03-03T13:18:14.524Z,6.13
2019-03-03T13:21:01.514Z,4.70
2019-03-03T13:23:51.720Z,3.17
2019-03-03T13:26:30.836Z,3.23
2019-03-03T13:29:27.243Z,3.57
2019-03-03T13:32:07.138Z,4.13
2019-03-03T13:34:52.576Z,2.63
2019-03-03T13:37:41.921Z,3.97
2019-03-03T13:40:37.044Z,3.33
2019-03-03T13:43:08.601Z,3.70
2019-03-03T13:45:39.955Z,3.57
2019-03-03T13:48:11.051Z,4.63
2019-03-03T13:50:42.446Z,4.10
2019-03-03T13:53:13.676Z,5.63
2019-03-03T13:55:45.024Z,4.23
2019-03-03T13:58:16.408Z,2.70
2019-03-03T14:00:47.751Z,2.80
2019-03-03T14:03:30.380Z,7.10
2019-03-03T14:06:02.210Z,7.10
2019-03-03T14:08:33.330Z,8.27
2019-03-03T14:11:05.730Z,3.57
2019-03-03T14:13:37.043Z,2.30
2019-03-03T14:16:08.538Z,6.60
2019-03-03T14:18:39.743Z,2.80
2019-03-03T14:21:12.476Z,5.07
2019-03-03T14:23:47.182Z,3.30
2019-03-03T14:26:18.553Z,2.00
2019-03-03T14:28:49.790Z,2.60
2019-03-03T14:31:21.445Z,1.80
2019-03-03T14:33:52.545Z,1.97
2019-03-03T14:36:23.954Z,4.40
2019-03-03T14:38:55.090Z,1.90
2019-03-03T14:41:26.360Z,1.63
2019-03-03T14:43:57.524Z,6.50
2019-03-03T14:46:28.746Z,2.30
2019-03-03T14:48:59.864Z,3.20
2019-03-03T14:51:32.446Z,2.10
2019-03-03T14:54:03.585Z,2.87
2019-03-03T14:56:35.036Z,1.53
2019-03-03T14:59:07.368Z,1.60
2019-03-03T15:01:39.526Z,1.93
2019-03-03T15:04:10.725Z,2.60
2019-03-03T15:06:42.313Z,1.53
2019-03-03T15:09:24.396Z,2.80
2019-03-03T15:11:55.828Z,2.40
2019-03-03T15:14:26.915Z,1.87
2019-03-03T15:16:58.422Z,3.83
2019-03-03T15:19:29.546Z,4.97
2019-03-03T15:22:01.129Z,2.70
2019-03-03T15:24:32.294Z,2.77
2019-03-03T15:27:03.723Z,2.33
2019-03-03T15:29:36.195Z,4.70
2019-03-03T15:32:07.663Z,3.40
2019-03-03T15:34:38.974Z,2.20
2019-03-03T15:37:12.113Z,8.77
2019-03-03T15:39:43.223Z,1.80
2019-03-03T15:42:14.466Z,2.07
2019-03-03T15:44:45.516Z,2.70
2019-03-03T15:47:16.826Z,1.60
2019-03-03T15:49:48.063Z,1.70
2019-03-03T15:52:20.410Z,4.50
2019-03-03T15:54:52.012Z,3.50
2019-03-03T15:57:23.627Z,3.00
2019-03-03T15:59:54.784Z,3.20
2019-03-03T16:02:26.200Z,3.10
2019-03-03T16:04:57.438Z,2.27
2019-03-03T16:07:29.006Z,3.10
2019-03-03T16:10:00.331Z,2.53
2019-03-03T16:12:31.640Z,4.47
2019-03-03T16:15:02.793Z,2.33
2019-03-03T16:17:35.172Z,2.10
2019-03-03T16:20:07.422Z,2.20
2019-03-03T16:22:39.077Z,3.53
2019-03-03T16:25:13.084Z,1.87
2019-03-03T16:27:44.510Z,3.10
2019-03-03T16:30:18.163Z,2.30
2019-03-03T16:32:49.585Z,1.93
2019-03-03T16:35:21.124Z,2.20
2019-03-03T16:37:52.551Z,4.43
2019-03-03T16:40:24.767Z,2.23
2019-03-03T16:42:56.291Z,2.10
2019-03-03T16:45:27.368Z,3.33
2019-03-03T16:47:58.688Z,3.13
2019-03-03T16:50:30.608Z,3.67
2019-03-03T16:53:02.104Z,2.70
2019-03-03T16:55:33.254Z,2.23
2019-03-03T16:58:04.811Z,2.90
2019-03-03T17:00:36.248Z,2.90
2019-03-03T17:03:07.713Z,2.60
2019-03-03T17:05:38.877Z,2.10
2019-03-03T17:08:10.300Z,4.80
2019-03-03T17:10:41.405Z,2.40
2019-03-03T17:13:12.740Z,4.40
2019-03-03T17:15:43.868Z,2.60
2019-03-03T17:18:15.390Z,2.47
2019-03-03T17:20:46.636Z,1.90
2019-03-03T17:23:18.106Z,2.70
2019-03-03T17:25:49.249Z,2.90
2019-03-03T17:28:20.686Z,5.17
2019-03-03T17:30:51.800Z,2.73
2019-03-03T17:33:23.128Z,2.20
2019-03-03T17:35:54.505Z,4.23
2019-03-03T17:38:25.862Z,2.97
2019-03-03T17:40:56.924Z,7.60
2019-03-03T17:43:28.410Z,3.83
2019-03-03T17:45:59.564Z,3.40
2019-03-03T17:48:31.378Z,4.40
2019-03-03T17:51:02.596Z,3.73
2019-03-03T17:53:34.083Z,7.63
2019-03-03T17:56:06.298Z,3.13
2019-03-03T17:58:37.708Z,2.80
2019-03-03T18:01:09.783Z,4.40
2019-03-03T18:03:41.506Z,3.77
2019-03-03T18:06:12.548Z,2.20
2019-03-03T18:08:43.793Z,3.40
2019-03-03T18:11:14.988Z,4.03
2019-03-03T18:13:46.306Z,3.63
2019-03-03T18:16:17.488Z,2.50
2019-03-03T18:18:48.816Z,3.13
2019-03-03T18:21:19.916Z,4.00
2019-03-03T18:23:51.394Z,2.77
2019-03-03T18:26:22.912Z,4.57
2019-03-03T18:28:54.332Z,5.50
2019-03-03T18:31:25.556Z,8.67
2019-03-03T18:33:57.045Z,8.83
2019-03-03T18:36:29.321Z,5.03
2019-03-03T18:39:00.850Z,5.60
2019-03-03T18:41:33.894Z,4.50
2019-03-03T18:44:05.282Z,3.40
2019-03-03T18:46:36.497Z,10.40
2019-03-03T18:49:07.970Z,3.80
2019-03-03T18:51:39.089Z,3.10
2019-03-03T18:54:10.570Z,5.37
2019-03-03T18:56:42.902Z,6.40
2019-03-03T18:59:14.293Z,3.00
2019-03-03T19:01:45.532Z,4.00
2019-03-03T19:04:16.890Z,3.50
2019-03-03T19:06:48.113Z,6.73
2019-03-03T19:09:21.701Z,4.17
2019-03-03T19:11:53.033Z,4.13
2019-03-03T19:14:28.264Z,6.03
2019-03-03T19:16:58.280Z,5.10
2019-03-03T19:19:41.376Z,3.97
2019-03-03T19:22:12.495Z,4.50
2019-03-03T19:24:43.859Z,5.03
2019-03-03T19:27:15.366Z,6.77
2019-03-03T19:29:46.776Z,7.23
2019-03-03T19:32:17.976Z,3.70
2019-03-03T19:34:49.480Z,3.23
2019-03-03T19:37:20.634Z,4.60
2019-03-03T19:39:51.969Z,4.90
2019-03-03T19:42:23.192Z,5.43
2019-03-03T19:44:54.763Z,6.83
2019-03-03T19:47:25.936Z,7.50
2019-03-03T19:49:57.354Z,7.90
2019-03-03T19:52:28.484Z,6.90
2019-03-03T19:55:00.100Z,9.53
2019-03-03T19:57:31.464Z,4.70
2019-03-03T20:00:02.868Z,6.20
2019-03-03T20:02:35.684Z,4.97
2019-03-03T20:05:07.150Z,5.20
2019-03-03T20:07:38.312Z,3.50
2019-03-03T20:10:10.288Z,5.30
2019-03-03T20:12:41.402Z,5.03
2019-03-03T20:15:12.725Z,5.00
2019-03-03T20:17:44.049Z,6.87
2019-03-03T20:20:16.629Z,4.23
2019-03-03T20:22:47.842Z,7.40
2019-03-03T20:25:19.378Z,3.27
2019-03-03T20:27:51.180Z,2.77
2019-03-03T20:30:22.937Z,3.23
2019-03-03T20:32:54.085Z,3.33
2019-03-03T20:35:25.498Z,2.93
2019-03-03T20:37:56.924Z,3.50
2019-03-03T20:40:28.344Z,4.10
2019-03-03T20:42:59.513Z,4.60
2019-03-03T20:45:31.154Z,3.50
2019-03-03T20:48:02.723Z,3.30
2019-03-03T20:50:34.160Z,2.63
2019-03-03T20:53:05.278Z,2.90
2019-03-03T20:55:37.638Z,2.90
2019-03-03T20:58:09.335Z,2.90
2019-03-03T21:00:40.664Z,3.10
2019-03-03T21:03:11.921Z,3.07
2019-03-03T21:05:43.190Z,5.27
2019-03-03T21:08:14.304Z,2.83
2019-03-03T21:10:45.977Z,4.93
2019-03-03T21:13:17.259Z,6.43
2019-03-03T21:15:48.688Z,6.87
2019-03-03T21:18:19.903Z,3.50
2019-03-03T21:20:51.351Z,3.00
2019-03-03T21:23:22.560Z,3.47
2019-03-03T21:25:54.480Z,4.37
2019-03-03T21:28:25.808Z,4.40
2019-03-03T21:30:57.170Z,4.50
2019-03-03T21:33:28.492Z,4.60
2019-03-03T21:35:59.883Z,12.13
2019-03-03T21:38:31.003Z,4.63
2019-03-03T21:41:02.272Z,5.13
2019-03-03T21:43:33.512Z,4.50
2019-03-03T21:46:04.873Z,3.30
2019-03-03T21:48:36.008Z,5.53
2019-03-03T21:51:07.589Z,7.87
2019-03-03T21:53:38.802Z,3.30
2019-03-03T21:56:10.384Z,6.60
2019-03-03T21:58:41.510Z,5.23
2019-03-03T22:01:12.978Z,3.57
2019-03-03T22:03:44.292Z,3.40
2019-03-03T22:06:15.922Z,3.27
2019-03-03T22:08:47.135Z,3.53
2019-03-03T22:11:18.564Z,3.03
2019-03-03T22:13:49.653Z,4.23
2019-03-03T22:16:21.567Z,4.10
2019-03-03T22:18:52.736Z,2.87
2019-03-03T22:21:24.768Z,3.30
2019-03-03T22:23:55.931Z,5.53
2019-03-03T22:26:27.380Z,3.63
2019-03-03T22:28:58.526Z,3.03
2019-03-03T22:31:29.868Z,3.80
2019-03-03T22:34:02.443Z,3.83
2019-03-03T22:36:33.737Z,3.83
2019-03-03T22:39:07.634Z,3.80
2019-03-03T22:41:39.877Z,4.10
2019-03-03T22:44:11.031Z,4.60
2019-03-03T22:46:42.791Z,3.70
2019-03-03T22:49:13.858Z,8.10
2019-03-03T22:51:45.493Z,3.00
2019-03-03T22:54:16.633Z,4.53
2019-03-03T22:56:47.978Z,3.17
2019-03-03T22:59:19.028Z,4.20
2019-03-03T23:01:50.352Z,8.50
2019-03-03T23:04:52.035Z,3.30
2019-03-03T23:07:35.339Z,2.93
2019-03-03T23:10:18.347Z,4.13
2019-03-03T23:13:18.195Z,3.00
2019-03-03T23:16:25.989Z,6.73
2019-03-03T23:19:23.761Z,4.13
2019-03-03T23:22:42.432Z,2.90
2019-03-03T23:25:51.667Z,3.37
2019-03-03T23:28:41.850Z,4.30
2019-03-03T23:31:13.315Z,3.87
2019-03-03T23:33:44.737Z,4.47
2019-03-03T23:36:16.218Z,3.10
2019-03-03T23:38:47.276Z,3.13
2019-03-03T23:41:18.592Z,7.07
2019-03-03T23:43:49.775Z,3.10
2019-03-03T23:46:21.110Z,3.10
2019-03-03T23:48:52.242Z,3.03
2019-03-03T23:51:23.805Z,2.70
2019-03-03T23:53:55.002Z,4.87
2019-03-03T23:56:26.306Z,7.70
2019-03-03T23:58:57.476Z,3.30
